Felix-Klein-Gymnasium, Gttingen, 150m NN
Donnes mto: Actuelle Dienstag, 07.04.2020 15:30
Date Horaire Temp. E. Hum. E. P.atmo. Pluie Vent Direction Direction Ensoleilleme P. de rose Temp au vent Rafales
07.04.2020 15:30 18,3 C 51 % 1028,3 hPa 0,0 mm 13,3 km/h (3 Bft) N-NO 327 15 min 8,0 C 18,3 C 24,1 km/h (4 Bft)
07.04.2020 15:15 18,4 C 52 % 1028,4 hPa 0,0 mm 12,1 km/h (2 Bft) O-NO 302 15 min 8,4 C 18,4 C 22,5 km/h (4 Bft)
07.04.2020 15:00 18,5 C 53 % 1028,6 hPa 0,0 mm 8,8 km/h (2 Bft) N 355 15 min 8,7 C 18,5 C 20,9 km/h (4 Bft)
07.04.2020 14:45 18,6 C 52 % 1028,7 hPa 0,0 mm 5,4 km/h (1 Bft) N 5 15 min 8,5 C 18,6 C 17,7 km/h (3 Bft)
07.04.2020 14:30 17,9 C 53 % 1028,8 hPa 0,0 mm 8,3 km/h (2 Bft) N-NO 338 15 min 8,2 C 17,9 C 20,9 km/h (4 Bft)
07.04.2020 14:15 17,3 C 56 % 1028,9 hPa 0,0 mm 10,7 km/h (2 Bft) N 355 15 min 8,4 C 17,3 C 19,3 km/h (3 Bft)
07.04.2020 14:00 16,9 C 57 % 1029,1 hPa 0,0 mm 11,5 km/h (2 Bft) N-NO 333 15 min 8,3 C 16,9 C 19,3 km/h (3 Bft)
07.04.2020 13:45 16,7 C 59 % 1029,0 hPa 0,0 mm 8,6 km/h (2 Bft) N-NO 329 15 min 8,6 C 16,7 C 19,3 km/h (3 Bft)
07.04.2020 13:30 16,9 C 58 % 1029,1 hPa 0,0 mm 5,4 km/h (1 Bft) O-NO 284 15 min 8,6 C 16,9 C 16,1 km/h (3 Bft)
07.04.2020 13:15 16,6 C 58 % 1029,3 hPa 0,0 mm 6,8 km/h (2 Bft) N-NO 348 15 min 8,3 C 16,6 C 20,9 km/h (4 Bft)
07.04.2020 13:00 16,1 C 61 % 1029,5 hPa 0,0 mm 4,6 km/h (1 Bft) NO 320 15 min 8,6 C 16,1 C 14,5 km/h (3 Bft)
07.04.2020 12:45 15,6 C 66 % 1029,7 hPa 0,0 mm 4,8 km/h (1 Bft) N-NO 334 15 min 9,3 C 15,6 C 17,7 km/h (3 Bft)
07.04.2020 12:30 14,9 C 68 % 1029,7 hPa 0,0 mm 4,7 km/h (1 Bft) NO 322 15 min 9,0 C 14,9 C 14,5 km/h (3 Bft)
07.04.2020 12:15 14,6 C 70 % 1029,7 hPa 0,0 mm 6,2 km/h (2 Bft) N 360 15 min 9,2 C 14,6 C 16,1 km/h (3 Bft)
07.04.2020 12:00 14,3 C 71 % 1029,8 hPa 0,0 mm 4,9 km/h (1 Bft) O-NO 297 15 min 9,1 C 14,3 C 11,3 km/h (2 Bft)
07.04.2020 11:45 13,9 C 72 % 1029,8 hPa 0,0 mm 3,0 km/h (1 Bft) NO 323 15 min 8,9 C 13,9 C 11,3 km/h (2 Bft)
07.04.2020 11:30 13,7 C 74 % 1029,8 hPa 0,0 mm 1,5 km/h (1 Bft) N 360 15 min 9,2 C 13,7 C 8,0 km/h (2 Bft)
07.04.2020 11:15 12,9 C 76 % 1029,8 hPa 0,0 mm 5,6 km/h (1 Bft) NO 321 15 min 8,8 C 12,9 C 14,5 km/h (3 Bft)
07.04.2020 11:00 12,8 C 76 % 1029,8 hPa 0,0 mm 5,0 km/h (1 Bft) N-NE 16 0 min 8,7 C 12,8 C 14,5 km/h (3 Bft)
07.04.2020 10:45 12,6 C 75 % 1029,7 hPa 0,0 mm 6,4 km/h (2 Bft) NO 317 0 min 8,3 C 12,6 C 11,3 km/h (2 Bft)
07.04.2020 10:30 12,2 C 75 % 1029,5 hPa 0,0 mm 4,8 km/h (1 Bft) N 5 0 min 7,9 C 12,2 C 11,3 km/h (2 Bft)
07.04.2020 10:15 11,8 C 73 % 1029,4 hPa 0,0 mm 0,2 km/h (0 Bft) N-NO 337 0 min 7,1 C 11,8 C 4,8 km/h (1 Bft)
07.04.2020 10:00 11,2 C 73 % 1029,4 hPa 0,0 mm 0,1 km/h (0 Bft) N 355 0 min 6,5 C 11,2 C 3,2 km/h (1 Bft)
07.04.2020 09:45 10,8 C 73 % 1029,2 hPa 0,0 mm 0,0 km/h (0 Bft) N-NE 24 0 min 6,2 C 10,8 C 0,0 km/h (0 Bft)
07.04.2020 09:30 10,2 C 73 % 1029,1 hPa 0,0 mm 0,0 km/h (0 Bft) NE 43 0 min 5,6 C 10,2 C 0,0 km/h (0 Bft)
07.04.2020 09:15 9,7 C 74 % 1028,9 hPa 0,0 mm 0,0 km/h (0 Bft) E-SE 120 0 min 5,3 C 9,7 C 0,0 km/h (0 Bft)
07.04.2020 09:00 9,3 C 74 % 1028,8 hPa 0,0 mm 0,0 km/h (0 Bft) E-SE 123 0 min 4,9 C 9,3 C 0,0 km/h (0 Bft)
07.04.2020 08:45 8,8 C 75 % 1028,6 hPa 0,0 mm 0,0 km/h (0 Bft) E-SE 123 0 min 4,6 C 8,8 C 0,0 km/h (0 Bft)
07.04.2020 08:30 8,2 C 75 % 1028,4 hPa 0,0 mm 0,0 km/h (0 Bft) E-SE 123 0 min 4,0 C 8,2 C 0,0 km/h (0 Bft)
07.04.2020 08:15 7,8 C 75 % 1028,2 hPa 0,0 mm 0,0 km/h (0 Bft) E-SE 123 0 min 3,7 C 7,8 C 0,0 km/h (0 Bft)
07.04.2020 08:00 7,3 C 76 % 1028,0 hPa 0,0 mm 0,0 km/h (0 Bft) E-SE 123 0 min 3,4 C 7,3 C 0,0 km/h (0 Bft)
07.04.2020 07:45 6,8 C 77 % 1027,8 hPa 0,0 mm 0,0 km/h (0 Bft) E-SE 123 0 min 3,1 C 6,8 C 0,0 km/h (0 Bft)
07.04.2020 07:30 6,2 C 77 % 1027,7 hPa 0,0 mm 0,0 km/h (0 Bft) E-SE 123 0 min 2,5 C 6,2 C 0,0 km/h (0 Bft)
07.04.2020 07:15 6,2 C 76 % 1027,5 hPa 0,0 mm 0,0 km/h (0 Bft) E-SE 123 0 min 2,3 C 6,2 C 0,0 km/h (0 Bft)
07.04.2020 07:00 6,2 C 75 % 1027,3 hPa 0,0 mm 0,0 km/h (0 Bft) E-SE 123 0 min 2,1 C 6,2 C 0,0 km/h (0 Bft)
07.04.2020 06:45 6,3 C 75 % 1027,0 hPa 0,0 mm 0,0 km/h (0 Bft) E-SE 123 0 min 2,2 C 6,3 C 0,0 km/h (0 Bft)
07.04.2020 06:30 6,3 C 75 % 1026,9 hPa 0,0 mm 0,0 km/h (0 Bft) E-SE 123 0 min 2,2 C 6,3 C 0,0 km/h (0 Bft)
07.04.2020 06:15 6,6 C 73 % 1026,7 hPa 0,0 mm 0,0 km/h (0 Bft) E-SE 123 0 min 2,1 C 6,6 C 0,0 km/h (0 Bft)
07.04.2020 06:00 6,9 C 72 % 1026,7 hPa 0,0 mm 0,0 km/h (0 Bft) E-SE 123 0 min 2,2 C 6,9 C 0,0 km/h (0 Bft)
07.04.2020 05:45 7,4 C 70 % 1026,5 hPa 0,0 mm 0,0 km/h (0 Bft) E-SE 119 0 min 2,3 C 7,4 C 0,0 km/h (0 Bft)
07.04.2020 05:30 7,9 C 68 % 1026,3 hPa 0,0 mm 0,0 km/h (0 Bft) E-SE 117 0 min 2,4 C 7,9 C 0,0 km/h (0 Bft)
07.04.2020 05:15 8,2 C 67 % 1026,1 hPa 0,0 mm 0,0 km/h (0 Bft) E-SE 117 0 min 2,4 C 8,2 C 0,0 km/h (0 Bft)
07.04.2020 05:00 8,4 C 67 % 1025,9 hPa 0,0 mm 0,0 km/h (0 Bft) E-SE 117 0 min 2,6 C 8,4 C 0,0 km/h (0 Bft)
07.04.2020 04:45 8,4 C 67 % 1025,8 hPa 0,0 mm 0,0 km/h (0 Bft) E-SE 117 0 min 2,6 C 8,4 C 0,0 km/h (0 Bft)
07.04.2020 04:30 8,6 C 66 % 1025,7 hPa 0,0 mm 0,0 km/h (0 Bft) E-SE 111 0 min 2,6 C 8,6 C 0,0 km/h (0 Bft)
07.04.2020 04:15 8,7 C 65 % 1025,4 hPa 0,0 mm 0,0 km/h (0 Bft) E-SE 105 0 min 2,5 C 8,7 C 0,0 km/h (0 Bft)
07.04.2020 04:00 10,3 C 62 % 1025,3 hPa 0,0 mm 0,0 km/h (0 Bft) N-NE 22 0 min 3,3 C 10,3 C 0,0 km/h (0 Bft)
07.04.2020 03:45 10,8 C 59 % 1025,0 hPa 0,0 mm 0,0 km/h (0 Bft) N-NE 22 0 min 3,1 C 10,8 C 0,0 km/h (0 Bft)
07.04.2020 03:30 11,2 C 57 % 1025,0 hPa 0,0 mm 0,0 km/h (0 Bft) N-NE 23 0 min 3,0 C 11,2 C 0,0 km/h (0 Bft)
07.04.2020 03:15 11,1 C 58 % 1024,9 hPa 0,0 mm 0,6 km/h (0 Bft) N-NE 22 0 min 3,2 C 11,1 C 6,4 km/h (2 Bft)
07.04.2020 03:00 11,6 C 56 % 1024,8 hPa 0,0 mm 3,4 km/h (1 Bft) N-NO 344 0 min 3,1 C 11,6 C 9,7 km/h (2 Bft)
07.04.2020 02:45 11,8 C 55 % 1024,6 hPa 0,0 mm 1,2 km/h (1 Bft) N 11 0 min 3,1 C 11,8 C 8,0 km/h (2 Bft)
07.04.2020 02:30 11,6 C 56 % 1024,2 hPa 0,0 mm 0,0 km/h (0 Bft) N-NE 31 0 min 3,1 C 11,6 C 0,0 km/h (0 Bft)
07.04.2020 02:15 11,6 C 56 % 1023,9 hPa 0,0 mm 0,2 km/h (0 Bft) N-NE 31 0 min 3,1 C 11,6 C 4,8 km/h (1 Bft)
07.04.2020 02:00 12,9 C 52 % 1023,7 hPa 0,0 mm 0,0 km/h (0 Bft) NE 34 0 min 3,3 C 12,9 C 0,0 km/h (0 Bft)
07.04.2020 01:45 13,4 C 48 % 1023,4 hPa 0,0 mm 1,0 km/h (0 Bft) S-SE 156 0 min 2,6 C 13,4 C 6,4 km/h (2 Bft)
07.04.2020 01:30 13,7 C 48 % 1023,0 hPa 0,0 mm 0,8 km/h (0 Bft) S-SE 153 0 min 2,9 C 13,7 C 6,4 km/h (2 Bft)
07.04.2020 01:15 13,4 C 48 % 1022,9 hPa 0,0 mm 0,0 km/h (0 Bft) S-SE 164 0 min 2,6 C 13,4 C 0,0 km/h (0 Bft)
07.04.2020 01:00 13,4 C 49 % 1022,7 hPa 0,0 mm 0,0 km/h (0 Bft) S-SE 159 0 min 2,9 C 13,4 C 0,0 km/h (0 Bft)
07.04.2020 00:45 13,2 C 49 % 1022,5 hPa 0,0 mm 0,4 km/h (0 Bft) S-SE 157 0 min 2,7 C 13,2 C 6,4 km/h (2 Bft)
07.04.2020 00:30 13,3 C 49 % 1022,2 hPa 0,0 mm 0,6 km/h (0 Bft) S 172 0 min 2,8 C 13,3 C 6,4 km/h (2 Bft)
07.04.2020 00:15 13,7 C 49 % 1022,2 hPa 0,0 mm 0,7 km/h (0 Bft) S 178 0 min 3,2 C 13,7 C 6,4 km/h (2 Bft)
07.04.2020 00:00 13,9 C 48 % 1021,9 hPa 0,0 mm 0,3 km/h (0 Bft) S-SE 166 0 min 3,1 C 13,9 C 4,8 km/h (1 Bft)
06.04.2020 22:45 14,6 C 46 % 1021,5 hPa 0,0 mm 0,0 km/h (0 Bft) S 180 0 min 3,1 C 14,6 C 0,0 km/h (0 Bft)
06.04.2020 22:30 14,8 C 46 % 1021,3 hPa 0,0 mm 0,7 km/h (0 Bft) S 184 0 min 3,3 C 14,8 C 4,8 km/h (1 Bft)
06.04.2020 22:15 15,1 C 45 % 1021,2 hPa 0,0 mm 0,4 km/h (0 Bft) S 172 0 min 3,3 C 15,1 C 4,8 km/h (1 Bft)
06.04.2020 22:00 15,3 C 45 % 1021,1 hPa 0,0 mm 0,4 km/h (0 Bft) S-SE 168 0 min 3,4 C 15,3 C 4,8 km/h (1 Bft)
06.04.2020 21:45 15,6 C 44 % 1021,1 hPa 0,0 mm 0,0 km/h (0 Bft) S 183 0 min 3,4 C 15,6 C 0,0 km/h (0 Bft)
06.04.2020 21:30 15,8 C 44 % 1021,0 hPa 0,0 mm 0,4 km/h (0 Bft) S 179 0 min 3,6 C 15,8 C 4,8 km/h (1 Bft)
06.04.2020 21:15 16,3 C 42 % 1020,7 hPa 0,0 mm 2,2 km/h (1 Bft) S-SE 167 0 min 3,4 C 16,3 C 6,4 km/h (2 Bft)
06.04.2020 21:00 17,1 C 40 % 1020,4 hPa 0,0 mm 2,6 km/h (1 Bft) S-SE 168 0 min 3,4 C 17,1 C 6,4 km/h (2 Bft)
06.04.2020 20:45 17,8 C 38 % 1020,3 hPa 0,0 mm 1,3 km/h (1 Bft) S-SE 165 0 min 3,3 C 17,8 C 6,4 km/h (2 Bft)
06.04.2020 20:30 18,4 C 36 % 1020,0 hPa 0,0 mm 1,1 km/h (1 Bft) S-SE 167 0 min 3,1 C 18,4 C 6,4 km/h (2 Bft)
06.04.2020 20:15 19,0 C 35 % 1019,8 hPa 0,0 mm 0,6 km/h (0 Bft) S-SE 167 0 min 3,2 C 19,0 C 6,4 km/h (2 Bft)
06.04.2020 20:00 19,7 C 33 % 1019,6 hPa 0,0 mm 0,2 km/h (0 Bft) S 180 0 min 3,0 C 19,7 C 6,4 km/h (2 Bft)
06.04.2020 19:45 20,4 C 32 % 1019,5 hPa 0,0 mm 0,9 km/h (0 Bft) S 175 0 min 3,2 C 20,4 C 8,0 km/h (2 Bft)
06.04.2020 19:30 20,8 C 31 % 1019,5 hPa 0,0 mm 3,1 km/h (1 Bft) SO 226 0 min 3,1 C 20,8 C 12,9 km/h (3 Bft)
06.04.2020 19:15 21,1 C 30 % 1019,4 hPa 0,0 mm 2,7 km/h (1 Bft) SO 217 0 min 2,8 C 21,1 C 12,9 km/h (3 Bft)
06.04.2020 19:00 21,4 C 29 % 1019,2 hPa 0,0 mm 4,5 km/h (1 Bft) SO 215 0 min 2,6 C 21,4 C 14,5 km/h (3 Bft)
06.04.2020 18:45 21,8 C 29 % 1019,2 hPa 0,0 mm 3,9 km/h (1 Bft) S-SO 192 15 min 3,0 C 21,8 C 20,9 km/h (4 Bft)
06.04.2020 18:30 22,0 C 28 % 1019,0 hPa 0,0 mm 4,5 km/h (1 Bft) S 180 15 min 2,7 C 22,0 C 19,3 km/h (3 Bft)
06.04.2020 18:15 21,9 C 28 % 1019,0 hPa 0,0 mm 5,8 km/h (2 Bft) S-SO 211 15 min 2,6 C 21,9 C 22,5 km/h (4 Bft)
06.04.2020 18:00 22,2 C 28 % 1019,1 hPa 0,0 mm 5,3 km/h (1 Bft) SO 219 15 min 2,8 C 22,2 C 19,3 km/h (3 Bft)
06.04.2020 17:45 22,3 C 28 % 1019,1 hPa 0,0 mm 6,2 km/h (2 Bft) S 184 15 min 2,9 C 22,3 C 22,5 km/h (4 Bft)
06.04.2020 17:30 22,5 C 27 % 1019,0 hPa 0,0 mm 5,6 km/h (1 Bft) S 174 15 min 2,6 C 22,5 C 17,7 km/h (3 Bft)
06.04.2020 17:15 22,7 C 27 % 1019,1 hPa 0,0 mm 7,0 km/h (2 Bft) S-SE 155 15 min 2,7 C 22,7 C 24,1 km/h (4 Bft)
06.04.2020 17:00 23,0 C 26 % 1019,0 hPa 0,0 mm 3,2 km/h (1 Bft) O-SO 245 15 min 2,5 C 23,0 C 17,7 km/h (3 Bft)
06.04.2020 16:45 22,6 C 25 % 1019,0 hPa 0,0 mm 7,2 km/h (2 Bft) S 186 15 min 1,6 C 22,6 C 24,1 km/h (4 Bft)
06.04.2020 16:30 22,9 C 25 % 1019,0 hPa 0,0 mm 4,8 km/h (1 Bft) O 280 15 min 1,8 C 22,9 C 17,7 km/h (3 Bft)
06.04.2020 16:15 22,7 C 24 % 1019,0 hPa 0,0 mm 8,3 km/h (2 Bft) SO 232 15 min 1,1 C 22,7 C 25,7 km/h (4 Bft)
06.04.2020 16:00 22,4 C 25 % 1019,0 hPa 0,0 mm 10,5 km/h (2 Bft) O 280 15 min 1,4 C 22,4 C 30,6 km/h (5 Bft)
_ Min-Heure 07:00 16:15 16:00 - 21:45 - - - 16:15 07:00 21:45
Minimum _ 6,2 C 24 % 1019,0 hPa - 0,0 km/h (0 Bft) - - - 1,1 C 6,2 C 0,0 km/h (0 Bft)
_ Max-Heure 17:00 07:30 11:00 16:00 15:30 - - 16:00 12:45 17:00 16:00
Maximum _ 23,0 C 77 % 1029,8 hPa 0,0 mm 13,3 km/h
N-NO (3 Bft)
- - 15 min 9,3 C 23,0 C 30,6 km/h
O (5 Bft)
Moyenne _ 14,8 C 52 % 1024,3 hPa #0,0 mm 3,1 km/h (1 Bft) N-NO - #4:30 h 4,1 C 14,8 C 10,0 km/h (2 Bft)